sensor_id;sensor_type;location;lat;lon;timestamp;P1;durP1;ratioP1;P2;durP2;ratioP2
43519;SDS011;46848;51.980;5.918;2022-07-17T00:02:05;7.63;;;2.25;;
43519;SDS011;46848;51.980;5.918;2022-07-17T00:04:31;5.40;;;2.00;;
43519;SDS011;46848;51.980;5.918;2022-07-17T00:06:57;7.47;;;1.52;;
43519;SDS011;46848;51.980;5.918;2022-07-17T00:09:22;4.35;;;1.38;;
43519;SDS011;46848;51.980;5.918;2022-07-17T00:11:48;4.15;;;1.60;;
43519;SDS011;46848;51.980;5.918;2022-07-17T00:14:14;6.38;;;3.20;;
43519;SDS011;46848;51.980;5.918;2022-07-17T00:16:39;7.07;;;2.55;;
43519;SDS011;46848;51.980;5.918;2022-07-17T00:19:05;5.95;;;2.00;;
43519;SDS011;46848;51.980;5.918;2022-07-17T00:21:31;5.72;;;2.30;;
43519;SDS011;46848;51.980;5.918;2022-07-17T00:23:57;6.53;;;2.30;;
43519;SDS011;46848;51.980;5.918;2022-07-17T00:26:23;5.93;;;1.75;;
43519;SDS011;46848;51.980;5.918;2022-07-17T00:28:49;6.03;;;2.78;;
43519;SDS011;46848;51.980;5.918;2022-07-17T00:31:14;7.10;;;2.55;;
43519;SDS011;46848;51.980;5.918;2022-07-17T00:33:40;5.65;;;2.90;;
43519;SDS011;46848;51.980;5.918;2022-07-17T00:36:06;5.97;;;3.10;;
43519;SDS011;46848;51.980;5.918;2022-07-17T00:38:32;6.47;;;2.80;;
43519;SDS011;46848;51.980;5.918;2022-07-17T00:40:58;7.13;;;2.88;;
43519;SDS011;46848;51.980;5.918;2022-07-17T00:43:24;7.70;;;2.55;;
43519;SDS011;46848;51.980;5.918;2022-07-17T00:45:54;5.53;;;2.22;;
43519;SDS011;46848;51.980;5.918;2022-07-17T00:48:24;8.15;;;2.67;;
43519;SDS011;46848;51.980;5.918;2022-07-17T00:50:50;7.05;;;3.10;;
43519;SDS011;46848;51.980;5.918;2022-07-17T00:53:16;5.72;;;2.47;;
43519;SDS011;46848;51.980;5.918;2022-07-17T00:55:41;4.65;;;2.08;;
43519;SDS011;46848;51.980;5.918;2022-07-17T00:58:07;5.50;;;2.20;;
43519;SDS011;46848;51.980;5.918;2022-07-17T01:00:34;6.38;;;2.08;;
43519;SDS011;46848;51.980;5.918;2022-07-17T01:03:00;4.97;;;2.13;;
43519;SDS011;46848;51.980;5.918;2022-07-17T01:05:26;6.10;;;2.70;;
43519;SDS011;46848;51.980;5.918;2022-07-17T01:07:52;6.57;;;2.65;;
43519;SDS011;46848;51.980;5.918;2022-07-17T01:10:18;5.82;;;1.98;;
43519;SDS011;46848;51.980;5.918;2022-07-17T01:12:44;7.20;;;3.15;;
43519;SDS011;46848;51.980;5.918;2022-07-17T01:15:11;7.20;;;2.95;;
43519;SDS011;46848;51.980;5.918;2022-07-17T01:17:37;8.25;;;3.13;;
43519;SDS011;46848;51.980;5.918;2022-07-17T01:20:04;5.72;;;2.72;;
43519;SDS011;46848;51.980;5.918;2022-07-17T01:22:31;8.10;;;2.70;;
43519;SDS011;46848;51.980;5.918;2022-07-17T01:24:56;5.80;;;2.58;;
43519;SDS011;46848;51.980;5.918;2022-07-17T01:27:22;5.60;;;2.50;;
43519;SDS011;46848;51.980;5.918;2022-07-17T01:29:48;6.85;;;2.63;;
43519;SDS011;46848;51.980;5.918;2022-07-17T01:32:14;8.65;;;3.40;;
43519;SDS011;46848;51.980;5.918;2022-07-17T01:34:40;7.65;;;3.97;;
43519;SDS011;46848;51.980;5.918;2022-07-17T01:37:05;6.40;;;2.65;;
43519;SDS011;46848;51.980;5.918;2022-07-17T01:39:31;9.77;;;4.05;;
43519;SDS011;46848;51.980;5.918;2022-07-17T01:42:15;11.63;;;5.28;;
43519;SDS011;46848;51.980;5.918;2022-07-17T01:44:41;5.10;;;3.42;;
43519;SDS011;46848;51.980;5.918;2022-07-17T01:47:06;8.57;;;3.22;;
43519;SDS011;46848;51.980;5.918;2022-07-17T01:49:32;4.95;;;2.05;;
43519;SDS011;46848;51.980;5.918;2022-07-17T01:51:58;5.60;;;2.15;;
43519;SDS011;46848;51.980;5.918;2022-07-17T01:54:25;5.57;;;1.70;;
43519;SDS011;46848;51.980;5.918;2022-07-17T01:56:52;5.22;;;1.45;;
43519;SDS011;46848;51.980;5.918;2022-07-17T01:59:18;5.78;;;2.00;;
43519;SDS011;46848;51.980;5.918;2022-07-17T02:01:44;9.20;;;3.40;;
43519;SDS011;46848;51.980;5.918;2022-07-17T02:04:09;6.68;;;3.10;;
43519;SDS011;46848;51.980;5.918;2022-07-17T02:06:35;6.85;;;3.92;;
43519;SDS011;46848;51.980;5.918;2022-07-17T02:09:01;9.23;;;4.35;;
43519;SDS011;46848;51.980;5.918;2022-07-17T02:11:27;8.90;;;4.30;;
43519;SDS011;46848;51.980;5.918;2022-07-17T02:13:52;6.20;;;3.70;;
43519;SDS011;46848;51.980;5.918;2022-07-17T02:16:18;8.23;;;4.63;;
43519;SDS011;46848;51.980;5.918;2022-07-17T02:18:44;8.82;;;4.75;;
43519;SDS011;46848;51.980;5.918;2022-07-17T02:21:09;9.60;;;5.45;;
43519;SDS011;46848;51.980;5.918;2022-07-17T02:23:35;7.70;;;4.05;;
43519;SDS011;46848;51.980;5.918;2022-07-17T02:26:00;6.85;;;3.55;;
43519;SDS011;46848;51.980;5.918;2022-07-17T02:28:26;5.90;;;2.50;;
43519;SDS011;46848;51.980;5.918;2022-07-17T02:30:52;5.28;;;1.98;;
43519;SDS011;46848;51.980;5.918;2022-07-17T02:33:17;6.65;;;2.60;;
43519;SDS011;46848;51.980;5.918;2022-07-17T02:35:43;8.25;;;3.25;;
43519;SDS011;46848;51.980;5.918;2022-07-17T02:38:09;6.35;;;2.17;;
43519;SDS011;46848;51.980;5.918;2022-07-17T02:40:34;5.32;;;1.40;;
43519;SDS011;46848;51.980;5.918;2022-07-17T02:43:00;3.13;;;1.20;;
43519;SDS011;46848;51.980;5.918;2022-07-17T02:45:25;3.13;;;1.45;;
43519;SDS011;46848;51.980;5.918;2022-07-17T02:47:52;4.78;;;1.67;;
43519;SDS011;46848;51.980;5.918;2022-07-17T02:50:19;5.10;;;1.52;;
43519;SDS011;46848;51.980;5.918;2022-07-17T02:52:46;7.03;;;1.95;;
43519;SDS011;46848;51.980;5.918;2022-07-17T02:55:13;5.53;;;2.17;;
43519;SDS011;46848;51.980;5.918;2022-07-17T02:57:38;5.63;;;2.53;;
43519;SDS011;46848;51.980;5.918;2022-07-17T03:00:05;5.97;;;2.72;;
43519;SDS011;46848;51.980;5.918;2022-07-17T03:02:32;8.40;;;3.22;;
43519;SDS011;46848;51.980;5.918;2022-07-17T03:04:58;6.53;;;3.58;;
43519;SDS011;46848;51.980;5.918;2022-07-17T03:07:23;8.65;;;3.88;;
43519;SDS011;46848;51.980;5.918;2022-07-17T03:09:49;7.18;;;3.60;;
43519;SDS011;46848;51.980;5.918;2022-07-17T03:12:15;5.45;;;2.90;;
43519;SDS011;46848;51.980;5.918;2022-07-17T03:14:40;7.47;;;2.75;;
43519;SDS011;46848;51.980;5.918;2022-07-17T03:17:06;6.47;;;2.90;;
43519;SDS011;46848;51.980;5.918;2022-07-17T03:19:32;5.63;;;2.47;;
43519;SDS011;46848;51.980;5.918;2022-07-17T03:21:58;6.15;;;1.90;;
43519;SDS011;46848;51.980;5.918;2022-07-17T03:24:23;5.03;;;1.73;;
43519;SDS011;46848;51.980;5.918;2022-07-17T03:26:49;4.45;;;2.33;;
43519;SDS011;46848;51.980;5.918;2022-07-17T03:29:15;10.23;;;2.80;;
43519;SDS011;46848;51.980;5.918;2022-07-17T03:31:42;5.55;;;2.42;;
43519;SDS011;46848;51.980;5.918;2022-07-17T03:34:08;6.53;;;2.10;;
43519;SDS011;46848;51.980;5.918;2022-07-17T03:36:34;5.07;;;1.85;;
43519;SDS011;46848;51.980;5.918;2022-07-17T03:39:00;5.43;;;2.03;;
43519;SDS011;46848;51.980;5.918;2022-07-17T03:41:26;4.35;;;1.60;;
43519;SDS011;46848;51.980;5.918;2022-07-17T03:43:51;6.32;;;1.63;;
43519;SDS011;46848;51.980;5.918;2022-07-17T03:46:17;4.07;;;1.33;;
43519;SDS011;46848;51.980;5.918;2022-07-17T03:48:43;5.90;;;1.88;;
43519;SDS011;46848;51.980;5.918;2022-07-17T03:51:08;4.78;;;1.80;;
43519;SDS011;46848;51.980;5.918;2022-07-17T03:53:34;5.30;;;2.15;;
43519;SDS011;46848;51.980;5.918;2022-07-17T03:56:00;5.25;;;1.75;;
43519;SDS011;46848;51.980;5.918;2022-07-17T03:58:25;5.20;;;2.08;;
43519;SDS011;46848;51.980;5.918;2022-07-17T04:00:51;6.70;;;2.50;;
43519;SDS011;46848;51.980;5.918;2022-07-17T04:03:17;9.35;;;3.25;;
43519;SDS011;46848;51.980;5.918;2022-07-17T04:05:42;6.13;;;2.70;;
43519;SDS011;46848;51.980;5.918;2022-07-17T04:08:08;4.57;;;2.13;;
43519;SDS011;46848;51.980;5.918;2022-07-17T04:10:34;5.32;;;2.00;;
43519;SDS011;46848;51.980;5.918;2022-07-17T04:13:00;5.70;;;1.92;;
43519;SDS011;46848;51.980;5.918;2022-07-17T04:15:26;6.85;;;1.92;;
43519;SDS011;46848;51.980;5.918;2022-07-17T04:18:10;5.22;;;2.10;;
43519;SDS011;46848;51.980;5.918;2022-07-17T04:20:36;4.53;;;2.20;;
43519;SDS011;46848;51.980;5.918;2022-07-17T04:23:02;5.53;;;2.25;;
43519;SDS011;46848;51.980;5.918;2022-07-17T04:25:27;6.55;;;2.25;;
43519;SDS011;46848;51.980;5.918;2022-07-17T04:27:53;5.22;;;2.30;;
43519;SDS011;46848;51.980;5.918;2022-07-17T04:30:19;5.60;;;2.10;;
43519;SDS011;46848;51.980;5.918;2022-07-17T04:32:44;5.65;;;1.60;;
43519;SDS011;46848;51.980;5.918;2022-07-17T04:35:10;5.47;;;2.03;;
43519;SDS011;46848;51.980;5.918;2022-07-17T04:37:36;5.47;;;2.30;;
43519;SDS011;46848;51.980;5.918;2022-07-17T04:40:01;7.07;;;2.88;;
43519;SDS011;46848;51.980;5.918;2022-07-17T04:42:27;5.75;;;2.22;;
43519;SDS011;46848;51.980;5.918;2022-07-17T04:44:53;5.43;;;2.22;;
43519;SDS011;46848;51.980;5.918;2022-07-17T04:47:18;7.03;;;2.63;;
43519;SDS011;46848;51.980;5.918;2022-07-17T04:49:44;5.57;;;2.10;;
43519;SDS011;46848;51.980;5.918;2022-07-17T04:52:09;4.63;;;1.95;;
43519;SDS011;46848;51.980;5.918;2022-07-17T04:54:35;7.35;;;1.77;;
43519;SDS011;46848;51.980;5.918;2022-07-17T04:57:01;6.00;;;1.70;;
43519;SDS011;46848;51.980;5.918;2022-07-17T04:59:26;6.95;;;1.85;;
43519;SDS011;46848;51.980;5.918;2022-07-17T05:01:52;7.07;;;2.30;;
43519;SDS011;46848;51.980;5.918;2022-07-17T05:04:17;8.73;;;2.50;;
43519;SDS011;46848;51.980;5.918;2022-07-17T05:06:43;4.22;;;1.35;;
43519;SDS011;46848;51.980;5.918;2022-07-17T05:09:09;3.47;;;1.60;;
43519;SDS011;46848;51.980;5.918;2022-07-17T05:11:35;5.15;;;2.22;;
43519;SDS011;46848;51.980;5.918;2022-07-17T05:14:01;6.22;;;1.73;;
43519;SDS011;46848;51.980;5.918;2022-07-17T05:16:27;6.97;;;2.20;;
43519;SDS011;46848;51.980;5.918;2022-07-17T05:18:53;6.03;;;2.20;;
43519;SDS011;46848;51.980;5.918;2022-07-17T05:21:18;5.85;;;1.58;;
43519;SDS011;46848;51.980;5.918;2022-07-17T05:23:44;6.20;;;2.25;;
43519;SDS011;46848;51.980;5.918;2022-07-17T05:26:10;7.90;;;2.00;;
43519;SDS011;46848;51.980;5.918;2022-07-17T05:28:36;5.28;;;1.85;;
43519;SDS011;46848;51.980;5.918;2022-07-17T05:31:02;5.43;;;1.90;;
43519;SDS011;46848;51.980;5.918;2022-07-17T05:33:27;5.95;;;1.30;;
43519;SDS011;46848;51.980;5.918;2022-07-17T05:35:53;4.50;;;1.40;;
43519;SDS011;46848;51.980;5.918;2022-07-17T05:38:19;3.38;;;1.40;;
43519;SDS011;46848;51.980;5.918;2022-07-17T05:40:44;2.90;;;0.85;;
43519;SDS011;46848;51.980;5.918;2022-07-17T05:43:10;4.78;;;1.60;;
43519;SDS011;46848;51.980;5.918;2022-07-17T05:45:36;3.90;;;1.60;;
43519;SDS011;46848;51.980;5.918;2022-07-17T05:48:03;3.95;;;1.85;;
43519;SDS011;46848;51.980;5.918;2022-07-17T05:50:30;5.50;;;1.20;;
43519;SDS011;46848;51.980;5.918;2022-07-17T05:52:57;3.63;;;1.20;;
43519;SDS011;46848;51.980;5.918;2022-07-17T05:55:22;4.78;;;1.50;;
43519;SDS011;46848;51.980;5.918;2022-07-17T05:57:48;5.22;;;1.40;;
43519;SDS011;46848;51.980;5.918;2022-07-17T06:00:14;4.85;;;1.60;;
43519;SDS011;46848;51.980;5.918;2022-07-17T06:02:40;3.95;;;1.23;;
43519;SDS011;46848;51.980;5.918;2022-07-17T06:05:06;4.93;;;1.80;;
43519;SDS011;46848;51.980;5.918;2022-07-17T06:07:32;7.32;;;2.50;;
43519;SDS011;46848;51.980;5.918;2022-07-17T06:09:58;6.78;;;2.40;;
43519;SDS011;46848;51.980;5.918;2022-07-17T06:12:24;6.32;;;2.17;;
43519;SDS011;46848;51.980;5.918;2022-07-17T06:14:49;4.75;;;1.90;;
43519;SDS011;46848;51.980;5.918;2022-07-17T06:17:15;4.82;;;1.42;;
43519;SDS011;46848;51.980;5.918;2022-07-17T06:19:41;4.90;;;2.00;;
43519;SDS011;46848;51.980;5.918;2022-07-17T06:22:06;5.97;;;1.63;;
43519;SDS011;46848;51.980;5.918;2022-07-17T06:24:32;5.20;;;1.55;;
43519;SDS011;46848;51.980;5.918;2022-07-17T06:26:58;4.07;;;1.45;;
43519;SDS011;46848;51.980;5.918;2022-07-17T06:29:23;6.43;;;1.75;;
43519;SDS011;46848;51.980;5.918;2022-07-17T06:31:49;5.25;;;2.20;;
43519;SDS011;46848;51.980;5.918;2022-07-17T06:34:15;4.22;;;1.70;;
43519;SDS011;46848;51.980;5.918;2022-07-17T06:36:40;4.20;;;1.42;;
43519;SDS011;46848;51.980;5.918;2022-07-17T06:39:06;6.80;;;1.80;;
43519;SDS011;46848;51.980;5.918;2022-07-17T06:41:32;4.93;;;1.50;;
43519;SDS011;46848;51.980;5.918;2022-07-17T06:43:57;3.47;;;1.55;;
43519;SDS011;46848;51.980;5.918;2022-07-17T06:46:23;3.95;;;1.35;;
43519;SDS011;46848;51.980;5.918;2022-07-17T06:48:48;3.95;;;1.73;;
43519;SDS011;46848;51.980;5.918;2022-07-17T06:51:16;4.88;;;1.50;;
43519;SDS011;46848;51.980;5.918;2022-07-17T06:53:42;3.75;;;1.17;;
43519;SDS011;46848;51.980;5.918;2022-07-17T06:56:08;5.07;;;1.40;;
43519;SDS011;46848;51.980;5.918;2022-07-17T06:58:34;4.95;;;1.30;;
43519;SDS011;46848;51.980;5.918;2022-07-17T07:00:59;4.03;;;1.23;;
43519;SDS011;46848;51.980;5.918;2022-07-17T07:03:25;4.70;;;1.10;;
43519;SDS011;46848;51.980;5.918;2022-07-17T07:05:51;2.95;;;1.00;;
43519;SDS011;46848;51.980;5.918;2022-07-17T07:08:17;5.40;;;1.20;;
43519;SDS011;46848;51.980;5.918;2022-07-17T07:10:42;3.78;;;1.35;;
43519;SDS011;46848;51.980;5.918;2022-07-17T07:13:09;4.13;;;1.02;;
43519;SDS011;46848;51.980;5.918;2022-07-17T07:15:35;5.30;;;1.50;;
43519;SDS011;46848;51.980;5.918;2022-07-17T07:18:00;5.75;;;1.27;;
43519;SDS011;46848;51.980;5.918;2022-07-17T07:20:26;5.47;;;1.40;;
43519;SDS011;46848;51.980;5.918;2022-07-17T07:22:52;3.15;;;0.70;;
43519;SDS011;46848;51.980;5.918;2022-07-17T07:25:18;3.83;;;1.02;;
43519;SDS011;46848;51.980;5.918;2022-07-17T07:27:44;4.00;;;1.05;;
43519;SDS011;46848;51.980;5.918;2022-07-17T07:30:10;5.78;;;1.00;;
43519;SDS011;46848;51.980;5.918;2022-07-17T07:32:36;3.40;;;0.80;;
43519;SDS011;46848;51.980;5.918;2022-07-17T07:35:03;6.30;;;1.88;;
43519;SDS011;46848;51.980;5.918;2022-07-17T07:37:30;4.93;;;1.20;;
43519;SDS011;46848;51.980;5.918;2022-07-17T07:39:56;4.25;;;0.90;;
43519;SDS011;46848;51.980;5.918;2022-07-17T07:42:21;3.17;;;0.95;;
43519;SDS011;46848;51.980;5.918;2022-07-17T07:44:47;2.95;;;0.80;;
43519;SDS011;46848;51.980;5.918;2022-07-17T07:47:13;3.67;;;1.33;;
43519;SDS011;46848;51.980;5.918;2022-07-17T07:49:38;4.30;;;1.08;;
43519;SDS011;46848;51.980;5.918;2022-07-17T07:52:04;5.43;;;1.40;;
43519;SDS011;46848;51.980;5.918;2022-07-17T07:54:30;4.38;;;0.85;;
43519;SDS011;46848;51.980;5.918;2022-07-17T07:56:56;4.63;;;1.00;;
43519;SDS011;46848;51.980;5.918;2022-07-17T07:59:21;3.80;;;0.90;;
43519;SDS011;46848;51.980;5.918;2022-07-17T08:01:47;3.08;;;0.93;;
43519;SDS011;46848;51.980;5.918;2022-07-17T08:04:13;4.30;;;1.38;;
43519;SDS011;46848;51.980;5.918;2022-07-17T08:06:39;4.20;;;1.38;;
43519;SDS011;46848;51.980;5.918;2022-07-17T08:09:05;4.00;;;0.90;;
43519;SDS011;46848;51.980;5.918;2022-07-17T08:11:30;3.00;;;0.88;;
43519;SDS011;46848;51.980;5.918;2022-07-17T08:13:56;6.82;;;1.27;;
43519;SDS011;46848;51.980;5.918;2022-07-17T08:16:22;3.03;;;0.95;;
43519;SDS011;46848;51.980;5.918;2022-07-17T08:18:47;1.90;;;0.90;;
43519;SDS011;46848;51.980;5.918;2022-07-17T08:21:13;3.80;;;0.90;;
43519;SDS011;46848;51.980;5.918;2022-07-17T08:23:39;2.65;;;0.80;;
43519;SDS011;46848;51.980;5.918;2022-07-17T08:26:04;4.47;;;1.20;;
43519;SDS011;46848;51.980;5.918;2022-07-17T08:28:30;4.05;;;1.08;;
43519;SDS011;46848;51.980;5.918;2022-07-17T08:30:56;2.80;;;0.70;;
43519;SDS011;46848;51.980;5.918;2022-07-17T08:33:21;3.08;;;0.90;;
43519;SDS011;46848;51.980;5.918;2022-07-17T08:35:47;4.60;;;1.30;;
43519;SDS011;46848;51.980;5.918;2022-07-17T08:38:12;3.33;;;0.90;;
43519;SDS011;46848;51.980;5.918;2022-07-17T08:40:39;2.67;;;0.77;;
43519;SDS011;46848;51.980;5.918;2022-07-17T08:43:05;4.90;;;1.00;;
43519;SDS011;46848;51.980;5.918;2022-07-17T08:45:32;5.70;;;1.13;;
43519;SDS011;46848;51.980;5.918;2022-07-17T08:47:59;5.40;;;1.63;;
43519;SDS011;46848;51.980;5.918;2022-07-17T08:50:30;3.88;;;1.00;;
43519;SDS011;46848;51.980;5.918;2022-07-17T08:52:57;3.08;;;0.80;;
43519;SDS011;46848;51.980;5.918;2022-07-17T08:55:23;3.80;;;0.77;;
43519;SDS011;46848;51.980;5.918;2022-07-17T08:57:50;2.30;;;0.73;;
43519;SDS011;46848;51.980;5.918;2022-07-17T09:00:17;4.47;;;1.13;;
43519;SDS011;46848;51.980;5.918;2022-07-17T09:05:24;4.82;;;1.05;;
43519;SDS011;46848;51.980;5.918;2022-07-17T09:07:50;3.90;;;1.02;;
43519;SDS011;46848;51.980;5.918;2022-07-17T09:10:16;4.60;;;1.45;;
43519;SDS011;46848;51.980;5.918;2022-07-17T09:12:42;3.53;;;1.30;;
43519;SDS011;46848;51.980;5.918;2022-07-17T09:15:17;7.35;;;1.15;;
43519;SDS011;46848;51.980;5.918;2022-07-17T09:17:50;3.97;;;1.33;;
43519;SDS011;46848;51.980;5.918;2022-07-17T09:20:17;6.10;;;1.30;;
43519;SDS011;46848;51.980;5.918;2022-07-17T09:22:55;2.97;;;0.80;;
43519;SDS011;46848;51.980;5.918;2022-07-17T09:28:06;4.07;;;1.10;;
43519;SDS011;46848;51.980;5.918;2022-07-17T09:30:35;4.13;;;1.00;;
43519;SDS011;46848;51.980;5.918;2022-07-17T09:33:02;4.07;;;1.20;;
43519;SDS011;46848;51.980;5.918;2022-07-17T09:35:31;4.53;;;1.02;;
43519;SDS011;46848;51.980;5.918;2022-07-17T09:37:57;3.63;;;0.82;;
43519;SDS011;46848;51.980;5.918;2022-07-17T09:40:23;4.40;;;1.00;;
43519;SDS011;46848;51.980;5.918;2022-07-17T09:43:07;3.25;;;0.98;;
43519;SDS011;46848;51.980;5.918;2022-07-17T09:45:33;3.25;;;1.05;;
43519;SDS011;46848;51.980;5.918;2022-07-17T09:48:00;3.40;;;1.08;;
43519;SDS011;46848;51.980;5.918;2022-07-17T09:50:26;6.05;;;1.00;;
43519;SDS011;46848;51.980;5.918;2022-07-17T09:52:53;4.57;;;1.48;;
43519;SDS011;46848;51.980;5.918;2022-07-17T09:55:22;9.10;;;3.22;;
43519;SDS011;46848;51.980;5.918;2022-07-17T09:57:56;12.68;;;5.03;;
43519;SDS011;46848;51.980;5.918;2022-07-17T10:00:25;7.70;;;2.00;;
43519;SDS011;46848;51.980;5.918;2022-07-17T10:02:51;9.13;;;3.75;;
43519;SDS011;46848;51.980;5.918;2022-07-17T10:05:17;6.07;;;2.45;;
43519;SDS011;46848;51.980;5.918;2022-07-17T10:07:43;5.53;;;1.85;;
43519;SDS011;46848;51.980;5.918;2022-07-17T10:10:15;3.13;;;1.20;;
43519;SDS011;46848;51.980;5.918;2022-07-17T10:12:42;3.50;;;1.13;;
43519;SDS011;46848;51.980;5.918;2022-07-17T10:15:10;4.60;;;1.52;;
43519;SDS011;46848;51.980;5.918;2022-07-17T10:17:36;4.75;;;1.10;;
43519;SDS011;46848;51.980;5.918;2022-07-17T10:20:02;4.75;;;0.82;;
43519;SDS011;46848;51.980;5.918;2022-07-17T10:22:39;4.30;;;1.13;;
43519;SDS011;46848;51.980;5.918;2022-07-17T10:25:12;3.50;;;1.00;;
43519;SDS011;46848;51.980;5.918;2022-07-17T10:27:45;2.33;;;0.73;;
43519;SDS011;46848;51.980;5.918;2022-07-17T10:30:19;2.70;;;0.90;;
43519;SDS011;46848;51.980;5.918;2022-07-17T10:32:55;5.25;;;1.40;;
43519;SDS011;46848;51.980;5.918;2022-07-17T10:35:26;4.05;;;1.15;;
43519;SDS011;46848;51.980;5.918;2022-07-17T10:37:53;3.90;;;0.80;;
43519;SDS011;46848;51.980;5.918;2022-07-17T10:40:23;3.28;;;1.05;;
43519;SDS011;46848;51.980;5.918;2022-07-17T10:42:55;2.22;;;0.70;;
43519;SDS011;46848;51.980;5.918;2022-07-17T10:47:53;6.57;;;2.50;;
43519;SDS011;46848;51.980;5.918;2022-07-17T10:50:36;8.13;;;3.65;;
43519;SDS011;46848;51.980;5.918;2022-07-17T10:55:31;2.78;;;1.00;;
43519;SDS011;46848;51.980;5.918;2022-07-17T10:57:58;3.33;;;0.98;;
43519;SDS011;46848;51.980;5.918;2022-07-17T11:00:24;4.00;;;1.30;;
43519;SDS011;46848;51.980;5.918;2022-07-17T11:02:50;4.07;;;1.13;;
43519;SDS011;46848;51.980;5.918;2022-07-17T11:05:16;5.25;;;1.10;;
43519;SDS011;46848;51.980;5.918;2022-07-17T11:10:15;3.85;;;1.42;;
43519;SDS011;46848;51.980;5.918;2022-07-17T11:12:41;2.15;;;0.90;;
43519;SDS011;46848;51.980;5.918;2022-07-17T11:15:07;3.72;;;1.00;;
43519;SDS011;46848;51.980;5.918;2022-07-17T11:17:33;3.67;;;0.95;;
43519;SDS011;46848;51.980;5.918;2022-07-17T11:19:59;4.45;;;1.02;;
43519;SDS011;46848;51.980;5.918;2022-07-17T11:22:27;6.75;;;1.23;;
43519;SDS011;46848;51.980;5.918;2022-07-17T11:24:53;6.70;;;1.10;;
43519;SDS011;46848;51.980;5.918;2022-07-17T11:27:22;3.97;;;1.02;;
43519;SDS011;46848;51.980;5.918;2022-07-17T11:29:56;4.53;;;0.93;;
43519;SDS011;46848;51.980;5.918;2022-07-17T11:32:23;3.75;;;0.95;;
43519;SDS011;46848;51.980;5.918;2022-07-17T11:34:56;3.10;;;0.93;;
43519;SDS011;46848;51.980;5.918;2022-07-17T11:37:22;3.92;;;1.20;;
43519;SDS011;46848;51.980;5.918;2022-07-17T11:39:53;2.85;;;1.17;;
43519;SDS011;46848;51.980;5.918;2022-07-17T11:42:19;5.30;;;1.10;;
43519;SDS011;46848;51.980;5.918;2022-07-17T11:44:46;2.20;;;0.73;;
43519;SDS011;46848;51.980;5.918;2022-07-17T11:47:19;2.50;;;0.80;;
43519;SDS011;46848;51.980;5.918;2022-07-17T11:49:49;2.65;;;0.90;;
43519;SDS011;46848;51.980;5.918;2022-07-17T11:52:16;3.05;;;1.00;;
43519;SDS011;46848;51.980;5.918;2022-07-17T11:54:53;2.60;;;0.95;;
43519;SDS011;46848;51.980;5.918;2022-07-17T11:57:20;4.32;;;1.00;;
43519;SDS011;46848;51.980;5.918;2022-07-17T11:59:47;1.95;;;0.68;;
43519;SDS011;46848;51.980;5.918;2022-07-17T12:02:15;3.60;;;1.00;;
43519;SDS011;46848;51.980;5.918;2022-07-17T12:04:49;3.67;;;0.95;;
43519;SDS011;46848;51.980;5.918;2022-07-17T12:07:25;2.70;;;0.93;;
43519;SDS011;46848;51.980;5.918;2022-07-17T12:09:52;3.63;;;0.80;;
43519;SDS011;46848;51.980;5.918;2022-07-17T12:12:23;3.70;;;0.98;;
43519;SDS011;46848;51.980;5.918;2022-07-17T12:14:57;4.13;;;1.52;;
43519;SDS011;46848;51.980;5.918;2022-07-17T12:17:24;2.42;;;1.05;;
43519;SDS011;46848;51.980;5.918;2022-07-17T12:20:04;2.35;;;0.70;;
43519;SDS011;46848;51.980;5.918;2022-07-17T12:22:41;4.22;;;0.82;;
43519;SDS011;46848;51.980;5.918;2022-07-17T12:25:32;4.07;;;1.05;;
43519;SDS011;46848;51.980;5.918;2022-07-17T12:27:57;2.40;;;0.90;;
43519;SDS011;46848;51.980;5.918;2022-07-17T12:30:22;2.92;;;1.02;;
43519;SDS011;46848;51.980;5.918;2022-07-17T12:32:48;2.10;;;0.80;;
43519;SDS011;46848;51.980;5.918;2022-07-17T12:35:14;1.60;;;0.70;;
43519;SDS011;46848;51.980;5.918;2022-07-17T12:37:40;2.80;;;0.75;;
43519;SDS011;46848;51.980;5.918;2022-07-17T12:40:06;2.00;;;0.80;;
43519;SDS011;46848;51.980;5.918;2022-07-17T12:42:32;2.38;;;0.80;;
43519;SDS011;46848;51.980;5.918;2022-07-17T12:44:58;3.80;;;1.27;;
43519;SDS011;46848;51.980;5.918;2022-07-17T12:47:24;4.35;;;1.30;;
43519;SDS011;46848;51.980;5.918;2022-07-17T12:49:50;2.85;;;0.93;;
43519;SDS011;46848;51.980;5.918;2022-07-17T12:52:15;2.42;;;0.70;;
43519;SDS011;46848;51.980;5.918;2022-07-17T12:54:41;7.30;;;0.85;;
43519;SDS011;46848;51.980;5.918;2022-07-17T12:57:07;1.33;;;0.68;;
43519;SDS011;46848;51.980;5.918;2022-07-17T12:59:33;4.32;;;0.80;;
43519;SDS011;46848;51.980;5.918;2022-07-17T13:01:59;1.75;;;0.70;;
43519;SDS011;46848;51.980;5.918;2022-07-17T13:04:24;2.35;;;0.75;;
43519;SDS011;46848;51.980;5.918;2022-07-17T13:06:51;1.80;;;0.65;;
43519;SDS011;46848;51.980;5.918;2022-07-17T13:09:17;1.77;;;0.80;;
43519;SDS011;46848;51.980;5.918;2022-07-17T13:11:43;2.25;;;0.80;;
43519;SDS011;46848;51.980;5.918;2022-07-17T13:14:09;3.13;;;1.10;;
43519;SDS011;46848;51.980;5.918;2022-07-17T13:16:38;1.88;;;0.82;;
43519;SDS011;46848;51.980;5.918;2022-07-17T13:19:05;1.63;;;0.77;;
43519;SDS011;46848;51.980;5.918;2022-07-17T13:21:31;2.58;;;0.77;;
43519;SDS011;46848;51.980;5.918;2022-07-17T13:23:57;2.45;;;0.80;;
43519;SDS011;46848;51.980;5.918;2022-07-17T13:26:23;2.10;;;0.80;;
43519;SDS011;46848;51.980;5.918;2022-07-17T13:28:49;2.33;;;1.08;;
43519;SDS011;46848;51.980;5.918;2022-07-17T13:31:14;2.30;;;1.23;;
43519;SDS011;46848;51.980;5.918;2022-07-17T13:33:40;2.92;;;1.00;;
43519;SDS011;46848;51.980;5.918;2022-07-17T13:36:06;2.70;;;0.85;;
43519;SDS011;46848;51.980;5.918;2022-07-17T13:38:32;1.90;;;0.90;;
43519;SDS011;46848;51.980;5.918;2022-07-17T13:40:57;2.13;;;0.93;;
43519;SDS011;46848;51.980;5.918;2022-07-17T13:43:23;1.17;;;0.60;;
43519;SDS011;46848;51.980;5.918;2022-07-17T13:45:49;1.77;;;0.80;;
43519;SDS011;46848;51.980;5.918;2022-07-17T13:48:14;1.77;;;0.70;;
43519;SDS011;46848;51.980;5.918;2022-07-17T13:50:41;1.98;;;0.80;;
43519;SDS011;46848;51.980;5.918;2022-07-17T13:53:07;1.58;;;0.75;;
43519;SDS011;46848;51.980;5.918;2022-07-17T13:55:32;2.88;;;0.98;;
43519;SDS011;46848;51.980;5.918;2022-07-17T13:57:58;2.38;;;0.73;;
43519;SDS011;46848;51.980;5.918;2022-07-17T14:00:24;3.33;;;0.98;;
43519;SDS011;46848;51.980;5.918;2022-07-17T14:02:50;2.40;;;0.90;;
43519;SDS011;46848;51.980;5.918;2022-07-17T14:05:15;3.97;;;0.80;;
43519;SDS011;46848;51.980;5.918;2022-07-17T14:07:41;1.58;;;0.70;;
43519;SDS011;46848;51.980;5.918;2022-07-17T14:10:08;2.33;;;0.98;;
43519;SDS011;46848;51.980;5.918;2022-07-17T14:12:35;3.35;;;0.75;;
43519;SDS011;46848;51.980;5.918;2022-07-17T14:15:01;3.00;;;1.00;;
43519;SDS011;46848;51.980;5.918;2022-07-17T14:17:28;4.35;;;0.90;;
43519;SDS011;46848;51.980;5.918;2022-07-17T14:19:53;2.30;;;1.30;;
43519;SDS011;46848;51.980;5.918;2022-07-17T14:22:19;2.65;;;1.10;;
43519;SDS011;46848;51.980;5.918;2022-07-17T14:24:45;2.95;;;1.23;;
43519;SDS011;46848;51.980;5.918;2022-07-17T14:27:10;3.33;;;1.45;;
43519;SDS011;46848;51.980;5.918;2022-07-17T14:29:36;3.45;;;1.50;;
43519;SDS011;46848;51.980;5.918;2022-07-17T14:32:02;3.88;;;1.55;;
43519;SDS011;46848;51.980;5.918;2022-07-17T14:34:27;3.83;;;1.50;;
43519;SDS011;46848;51.980;5.918;2022-07-17T14:36:53;2.25;;;1.25;;
43519;SDS011;46848;51.980;5.918;2022-07-17T14:39:19;2.80;;;1.40;;
43519;SDS011;46848;51.980;5.918;2022-07-17T14:41:44;3.58;;;1.33;;
43519;SDS011;46848;51.980;5.918;2022-07-17T14:44:11;3.65;;;1.70;;
43519;SDS011;46848;51.980;5.918;2022-07-17T14:46:37;4.30;;;1.42;;
43519;SDS011;46848;51.980;5.918;2022-07-17T14:49:02;7.90;;;3.20;;
43519;SDS011;46848;51.980;5.918;2022-07-17T14:51:28;4.45;;;1.80;;
43519;SDS011;46848;51.980;5.918;2022-07-17T14:53:53;3.90;;;1.63;;
43519;SDS011;46848;51.980;5.918;2022-07-17T14:56:19;3.75;;;1.60;;
43519;SDS011;46848;51.980;5.918;2022-07-17T14:58:45;2.53;;;1.67;;